createdAt,value
2023-05-05T00:01:37.305Z,2.90
2023-05-05T00:04:04.325Z,3.45
2023-05-05T00:06:31.557Z,3.47
2023-05-05T00:08:58.372Z,3.22
2023-05-05T00:11:26.059Z,4.38
2023-05-05T00:13:52.902Z,4.15
2023-05-05T00:16:20.080Z,3.88
2023-05-05T00:18:47.416Z,3.22
2023-05-05T00:21:14.072Z,2.78
2023-05-05T00:23:40.980Z,3.85
2023-05-05T00:26:07.692Z,3.50
2023-05-05T00:28:34.551Z,3.22
2023-05-05T00:31:01.736Z,2.90
2023-05-05T00:33:28.627Z,2.53
2023-05-05T00:35:55.361Z,4.55
2023-05-05T00:38:22.062Z,3.22
2023-05-05T00:40:48.846Z,3.30
2023-05-05T00:43:15.724Z,3.90
2023-05-05T00:45:44.694Z,3.50
2023-05-05T00:48:11.655Z,3.00
2023-05-05T00:50:38.799Z,4.00
2023-05-05T00:53:06.913Z,3.17
2023-05-05T00:55:34.921Z,3.75
2023-05-05T00:58:05.517Z,3.58
2023-05-05T01:00:33.380Z,2.60
2023-05-05T01:03:00.235Z,2.75
2023-05-05T01:05:36.983Z,3.42
2023-05-05T01:08:22.474Z,2.95
2023-05-05T01:10:55.290Z,4.47
2023-05-05T01:14:06.816Z,3.03
2023-05-05T01:16:36.055Z,3.35
2023-05-05T01:19:17.888Z,2.97
2023-05-05T01:21:49.836Z,2.95
2023-05-05T01:24:25.618Z,2.90
2023-05-05T01:27:20.986Z,4.13
2023-05-05T01:29:47.957Z,2.80
2023-05-05T01:32:16.234Z,3.05
2023-05-05T01:35:13.358Z,2.70
2023-05-05T01:37:40.023Z,3.00
2023-05-05T01:40:10.547Z,4.60
2023-05-05T01:42:42.630Z,3.05
2023-05-05T01:45:12.963Z,4.10
2023-05-05T01:47:41.994Z,4.90
2023-05-05T01:50:11.576Z,3.30
2023-05-05T01:52:40.164Z,4.65
2023-05-05T01:55:09.460Z,3.60
2023-05-05T01:57:39.575Z,2.88
2023-05-05T02:00:08.143Z,3.85
2023-05-05T02:02:42.910Z,3.45
2023-05-05T02:05:10.258Z,2.95
2023-05-05T02:07:37.241Z,4.28
2023-05-05T02:10:06.355Z,3.25
2023-05-05T02:12:35.387Z,3.33
2023-05-05T02:15:03.031Z,5.13
2023-05-05T02:17:30.882Z,3.58
2023-05-05T02:20:00.607Z,3.90
2023-05-05T02:22:27.842Z,4.35
2023-05-05T02:24:54.886Z,5.38
2023-05-05T02:27:24.679Z,3.47
2023-05-05T02:29:57.778Z,5.05
2023-05-05T02:32:37.753Z,4.10
2023-05-05T02:35:14.395Z,5.07
2023-05-05T02:37:56.958Z,5.80
2023-05-05T02:40:26.302Z,3.58
2023-05-05T02:42:57.409Z,4.90
2023-05-05T02:45:29.001Z,5.22
2023-05-05T02:47:55.922Z,4.95
2023-05-05T02:50:23.787Z,4.43
2023-05-05T02:53:02.237Z,4.95
2023-05-05T02:55:37.164Z,4.80
2023-05-05T02:58:11.925Z,4.45
2023-05-05T03:01:01.032Z,6.25
2023-05-05T03:03:39.410Z,5.15
2023-05-05T03:06:13.683Z,5.55
2023-05-05T03:08:53.943Z,4.60
2023-05-05T03:11:44.337Z,5.38
2023-05-05T03:14:13.633Z,4.82
2023-05-05T03:16:42.722Z,4.90
2023-05-05T03:19:12.007Z,6.10
2023-05-05T03:21:40.693Z,6.45
2023-05-05T03:24:13.461Z,6.15
2023-05-05T03:26:47.813Z,6.40
2023-05-05T03:29:18.264Z,6.25
2023-05-05T03:31:45.200Z,6.88
2023-05-05T03:34:12.229Z,6.85
2023-05-05T03:36:44.866Z,7.72
2023-05-05T03:39:14.570Z,6.25
2023-05-05T03:41:41.518Z,7.93
2023-05-05T03:44:10.599Z,6.20
2023-05-05T03:46:37.733Z,6.35
2023-05-05T03:49:09.846Z,7.72
2023-05-05T03:51:38.055Z,6.40
2023-05-05T03:54:04.957Z,7.20
2023-05-05T03:56:32.035Z,8.50
2023-05-05T03:58:58.763Z,7.90
2023-05-05T04:01:26.273Z,7.47
2023-05-05T04:03:53.068Z,8.45
2023-05-05T04:06:20.165Z,8.48
2023-05-05T04:08:46.927Z,7.97
2023-05-05T04:11:13.630Z,8.43
2023-05-05T04:13:41.453Z,7.63
2023-05-05T04:16:09.021Z,8.73
2023-05-05T04:18:37.353Z,9.75
2023-05-05T04:21:04.719Z,7.82
2023-05-05T04:23:34.128Z,8.70
2023-05-05T04:26:01.046Z,8.98
2023-05-05T04:28:28.210Z,8.98
2023-05-05T04:30:55.528Z,9.90
2023-05-05T04:33:22.726Z,10.05
2023-05-05T04:35:50.303Z,10.10
2023-05-05T04:38:17.336Z,9.95
2023-05-05T04:40:44.425Z,9.73
2023-05-05T04:43:11.783Z,8.75
2023-05-05T04:45:39.378Z,9.65
2023-05-05T04:48:06.642Z,9.48
2023-05-05T04:50:33.401Z,9.05
2023-05-05T04:53:00.879Z,9.30
2023-05-05T04:55:28.400Z,9.30
2023-05-05T04:57:55.536Z,8.20
2023-05-05T05:00:24.082Z,8.90
2023-05-05T05:02:52.564Z,8.20
2023-05-05T05:05:22.380Z,10.27
2023-05-05T05:07:49.542Z,11.45
2023-05-05T05:10:16.400Z,9.88
2023-05-05T05:12:43.299Z,9.88
2023-05-05T05:15:13.152Z,9.32
2023-05-05T05:17:40.841Z,9.55
2023-05-05T05:20:08.228Z,11.80
2023-05-05T05:22:38.318Z,11.25
2023-05-05T05:25:08.475Z,9.32
2023-05-05T05:27:35.217Z,10.90
2023-05-05T05:30:02.266Z,10.80
2023-05-05T05:32:30.783Z,9.32
2023-05-05T05:34:57.602Z,9.95
2023-05-05T05:37:24.613Z,10.05
2023-05-05T05:39:52.329Z,9.82
2023-05-05T05:42:23.220Z,9.82
2023-05-05T05:44:49.975Z,9.57
2023-05-05T05:47:16.731Z,9.48
2023-05-05T05:49:43.562Z,8.52
2023-05-05T05:52:10.925Z,10.07
2023-05-05T05:54:38.477Z,9.18
2023-05-05T05:57:06.945Z,8.93
2023-05-05T05:59:33.825Z,8.13
2023-05-05T06:02:02.031Z,8.90
2023-05-05T06:04:29.118Z,8.38
2023-05-05T06:06:56.964Z,9.90
2023-05-05T06:09:24.175Z,11.35
2023-05-05T06:11:52.361Z,9.10
2023-05-05T06:14:20.108Z,9.98
2023-05-05T06:16:47.086Z,10.52
2023-05-05T06:19:18.177Z,16.75
2023-05-05T06:21:45.303Z,10.50
2023-05-05T06:24:12.085Z,9.77
2023-05-05T06:26:38.911Z,9.73
2023-05-05T06:29:05.630Z,10.25
2023-05-05T06:31:32.387Z,10.32
2023-05-05T06:33:59.099Z,9.20
2023-05-05T06:36:26.370Z,9.38
2023-05-05T06:38:53.052Z,9.13
2023-05-05T06:41:19.789Z,10.25
2023-05-05T06:43:46.985Z,8.68
2023-05-05T06:46:14.305Z,9.88
2023-05-05T06:48:41.085Z,8.23
2023-05-05T06:51:08.964Z,8.40
2023-05-05T06:53:35.768Z,8.02
2023-05-05T06:56:02.430Z,7.85
2023-05-05T06:58:29.209Z,8.75
2023-05-05T07:00:56.393Z,7.55
2023-05-05T07:03:23.266Z,8.40
2023-05-05T07:05:49.984Z,7.97
2023-05-05T07:08:16.731Z,8.30
2023-05-05T07:10:44.057Z,8.57
2023-05-05T07:13:10.868Z,6.82
2023-05-05T07:15:37.719Z,7.75
2023-05-05T07:18:04.624Z,7.07
2023-05-05T07:20:31.446Z,6.80
2023-05-05T07:22:58.493Z,5.78
2023-05-05T07:25:25.111Z,8.10
2023-05-05T07:27:51.902Z,6.80
2023-05-05T07:30:19.538Z,7.50
2023-05-05T07:32:46.999Z,5.88
2023-05-05T07:35:13.910Z,6.50
2023-05-05T07:37:40.778Z,6.65
2023-05-05T07:40:08.356Z,7.43
2023-05-05T07:42:35.444Z,7.57
2023-05-05T07:45:02.472Z,6.32
2023-05-05T07:47:29.375Z,6.50
2023-05-05T07:49:56.277Z,6.80
2023-05-05T07:52:37.094Z,7.22
2023-05-05T07:55:10.545Z,6.63
2023-05-05T07:57:37.431Z,5.82
2023-05-05T08:00:04.792Z,6.75
2023-05-05T08:02:51.430Z,5.78
2023-05-05T08:05:18.488Z,6.47
2023-05-05T08:07:45.150Z,6.55
2023-05-05T08:10:12.616Z,7.07
2023-05-05T08:12:40.039Z,7.38
2023-05-05T08:15:08.027Z,6.90
2023-05-05T08:17:48.820Z,6.57
2023-05-05T08:20:16.964Z,7.63
2023-05-05T08:22:44.421Z,7.50
2023-05-05T08:25:13.902Z,6.70
2023-05-05T08:27:42.153Z,6.95
2023-05-05T08:30:10.120Z,6.43
2023-05-05T08:32:38.364Z,6.45
2023-05-05T08:35:06.560Z,7.68
2023-05-05T08:37:33.758Z,8.70
2023-05-05T08:40:00.588Z,6.68
2023-05-05T08:42:37.216Z,6.80
2023-05-05T08:45:07.718Z,6.07
2023-05-05T08:47:37.036Z,7.65
2023-05-05T08:50:05.701Z,6.22
2023-05-05T08:52:40.382Z,7.55
2023-05-05T08:55:18.123Z,7.90
2023-05-05T08:57:56.691Z,6.65
2023-05-05T09:00:26.508Z,8.60
2023-05-05T09:02:56.816Z,7.68
2023-05-05T09:05:24.406Z,7.90
2023-05-05T09:07:51.372Z,8.95
2023-05-05T09:10:18.586Z,7.05
2023-05-05T09:12:45.512Z,7.38
2023-05-05T09:15:14.373Z,7.97
2023-05-05T09:17:42.283Z,7.72
2023-05-05T09:20:11.707Z,7.30
2023-05-05T09:22:48.074Z,8.23
2023-05-05T09:25:16.943Z,7.07
2023-05-05T09:27:46.254Z,7.20
2023-05-05T09:30:19.485Z,7.90
2023-05-05T09:32:54.048Z,6.88
2023-05-05T09:35:22.457Z,7.80
2023-05-05T09:37:49.288Z,8.57
2023-05-05T09:40:18.034Z,7.70
2023-05-05T09:42:45.216Z,9.40
2023-05-05T09:45:18.015Z,8.82
2023-05-05T09:47:49.136Z,7.93
2023-05-05T09:50:18.825Z,8.45
2023-05-05T09:52:56.300Z,7.75
2023-05-05T09:55:24.156Z,7.78
2023-05-05T09:57:51.172Z,7.32
2023-05-05T10:00:18.148Z,8.18
2023-05-05T10:02:45.598Z,9.20
2023-05-05T10:05:14.967Z,7.78
2023-05-05T10:07:44.750Z,7.97
2023-05-05T10:10:16.996Z,7.28
2023-05-05T10:12:46.650Z,10.50
2023-05-05T10:15:15.782Z,7.88
2023-05-05T10:18:05.378Z,8.60
2023-05-05T10:23:06.969Z,9.23
2023-05-05T10:25:45.115Z,9.80
2023-05-05T10:28:20.182Z,9.02
2023-05-05T10:30:51.328Z,9.15
2023-05-05T10:33:33.955Z,9.77
2023-05-05T10:36:06.101Z,9.48
2023-05-05T10:38:34.130Z,9.63
2023-05-05T10:41:02.240Z,9.90
2023-05-05T10:43:31.424Z,9.38
2023-05-05T10:45:59.350Z,10.20
2023-05-05T10:48:42.657Z,9.23
2023-05-05T10:51:40.081Z,10.10
2023-05-05T10:54:22.193Z,8.50
2023-05-05T10:56:49.730Z,9.07
2023-05-05T10:59:38.487Z,9.65
2023-05-05T11:02:29.091Z,9.68
2023-05-05T11:05:18.120Z,8.57
2023-05-05T11:07:46.594Z,8.93
2023-05-05T11:10:15.039Z,10.02
2023-05-05T11:12:52.683Z,9.05
2023-05-05T11:15:31.491Z,10.82
2023-05-05T11:18:00.727Z,9.23
2023-05-05T11:20:37.678Z,10.43
2023-05-05T11:23:04.837Z,8.80
2023-05-05T11:25:35.362Z,10.82
2023-05-05T11:28:09.663Z,10.27
2023-05-05T11:30:59.688Z,9.73
2023-05-05T11:33:33.506Z,8.98
2023-05-05T11:36:06.810Z,8.95
2023-05-05T11:38:53.004Z,10.65
2023-05-05T11:41:52.479Z,11.02
2023-05-05T11:44:21.065Z,10.77
2023-05-05T11:46:54.302Z,9.35
2023-05-05T11:49:27.879Z,11.25
2023-05-05T11:52:02.700Z,11.15
2023-05-05T11:54:30.269Z,10.48
2023-05-05T11:56:59.155Z,10.88
2023-05-05T11:59:26.125Z,9.65
2023-05-05T12:01:53.112Z,11.43
2023-05-05T12:04:20.654Z,12.60
2023-05-05T12:06:48.999Z,10.27
2023-05-05T12:09:21.255Z,11.52
2023-05-05T12:11:58.773Z,10.07
2023-05-05T12:14:26.046Z,11.25
2023-05-05T12:17:04.312Z,10.60
2023-05-05T12:19:33.597Z,11.00
2023-05-05T12:22:04.655Z,11.27
2023-05-05T12:24:31.610Z,10.38
2023-05-05T12:27:08.747Z,11.80
2023-05-05T12:29:35.512Z,12.43
2023-05-05T12:32:02.350Z,11.20
2023-05-05T12:34:29.435Z,12.60
2023-05-05T12:36:56.311Z,12.10
2023-05-05T12:39:23.045Z,12.77
2023-05-05T12:41:49.991Z,10.88
2023-05-05T12:44:16.710Z,8.88
2023-05-05T12:46:46.972Z,12.00
2023-05-05T12:49:13.846Z,10.15
2023-05-05T12:51:53.829Z,11.38
2023-05-05T12:54:20.632Z,9.27
2023-05-05T12:56:48.368Z,9.52
2023-05-05T12:59:21.186Z,9.80
2023-05-05T13:01:53.312Z,9.90
2023-05-05T13:04:22.946Z,13.18
2023-05-05T13:07:11.135Z,11.98
2023-05-05T13:09:37.895Z,12.35
2023-05-05T13:12:05.017Z,16.08
2023-05-05T13:14:31.952Z,15.90
2023-05-05T13:16:58.845Z,12.82
2023-05-05T13:19:25.782Z,15.45
2023-05-05T13:21:52.974Z,13.30
2023-05-05T13:24:28.704Z,13.65
2023-05-05T13:27:05.592Z,14.02
2023-05-05T13:29:33.583Z,12.88
2023-05-05T13:32:00.551Z,11.15
2023-05-05T13:34:27.317Z,11.60
2023-05-05T13:36:54.068Z,12.70
2023-05-05T13:39:21.453Z,13.85
2023-05-05T13:41:48.197Z,12.68
2023-05-05T13:44:18.407Z,14.02
2023-05-05T13:46:45.294Z,13.27
2023-05-05T13:49:12.068Z,12.68
2023-05-05T13:51:39.213Z,14.25
2023-05-05T13:54:06.914Z,16.10
2023-05-05T13:56:34.276Z,14.88
2023-05-05T13:59:01.293Z,14.23
2023-05-05T14:01:28.559Z,14.07
2023-05-05T14:03:57.399Z,14.35
2023-05-05T14:06:24.599Z,14.85
2023-05-05T14:08:51.708Z,15.18
2023-05-05T14:11:20.808Z,15.48
2023-05-05T14:13:48.209Z,15.25
2023-05-05T14:16:15.044Z,12.57
2023-05-05T14:18:41.816Z,15.90
2023-05-05T14:21:08.655Z,12.52
2023-05-05T14:23:35.687Z,14.23
2023-05-05T14:26:04.057Z,12.70
2023-05-05T14:28:30.894Z,12.57
2023-05-05T14:30:57.635Z,13.35
2023-05-05T14:33:24.466Z,11.40
2023-05-05T14:35:51.290Z,13.63
2023-05-05T14:38:18.413Z,13.77
2023-05-05T14:40:45.208Z,13.73
2023-05-05T14:43:11.993Z,11.30
2023-05-05T14:45:38.689Z,13.70
2023-05-05T14:48:05.646Z,12.32
2023-05-05T14:50:32.452Z,11.20
2023-05-05T14:52:59.181Z,17.52
2023-05-05T14:55:26.112Z,14.98
2023-05-05T14:57:52.828Z,14.80
2023-05-05T15:00:19.598Z,13.20
2023-05-05T15:02:48.322Z,13.30
2023-05-05T15:05:15.334Z,14.20
2023-05-05T15:07:42.108Z,15.15
2023-05-05T15:10:09.286Z,13.05
2023-05-05T15:12:36.420Z,14.50
2023-05-05T15:15:05.175Z,22.45
2023-05-05T15:17:32.145Z,21.48
2023-05-05T15:19:58.911Z,19.58
2023-05-05T15:22:26.065Z,16.42
2023-05-05T15:24:53.239Z,16.05
2023-05-05T15:27:20.023Z,17.77
2023-05-05T15:29:46.858Z,19.52
2023-05-05T15:32:13.581Z,13.13
2023-05-05T15:34:40.668Z,21.95
2023-05-05T15:37:07.564Z,19.25
2023-05-05T15:39:34.227Z,17.60
2023-05-05T15:42:03.907Z,15.98
2023-05-05T15:44:31.454Z,16.15
2023-05-05T15:46:58.185Z,16.33
2023-05-05T15:49:25.033Z,15.80
2023-05-05T15:51:51.755Z,12.52
2023-05-05T15:54:18.461Z,12.88
2023-05-05T15:56:45.158Z,15.70
2023-05-05T15:59:11.843Z,12.77
2023-05-05T16:01:38.766Z,13.55
2023-05-05T16:04:05.772Z,13.38
2023-05-05T16:06:32.700Z,17.35
2023-05-05T16:08:59.527Z,17.02
2023-05-05T16:11:26.952Z,24.38
2023-05-05T16:13:53.908Z,20.58
2023-05-05T16:16:21.028Z,21.48
2023-05-05T16:18:48.082Z,15.68
2023-05-05T16:21:15.105Z,13.23
2023-05-05T16:23:42.872Z,14.43
2023-05-05T16:26:09.657Z,14.02
2023-05-05T16:28:37.655Z,13.63
2023-05-05T16:31:04.529Z,14.55
2023-05-05T16:33:31.475Z,14.88
2023-05-05T16:35:58.250Z,13.80
2023-05-05T16:38:24.962Z,15.35
2023-05-05T16:40:51.865Z,14.63
2023-05-05T16:43:19.600Z,16.10
2023-05-05T16:45:46.693Z,14.00
2023-05-05T16:48:14.740Z,14.90
2023-05-05T16:50:41.552Z,15.25
2023-05-05T16:53:09.231Z,14.48
2023-05-05T16:55:36.813Z,15.50
2023-05-05T16:58:04.516Z,15.63
2023-05-05T17:00:31.283Z,15.20
2023-05-05T17:02:58.228Z,15.48
2023-05-05T17:05:25.173Z,14.10
2023-05-05T17:07:52.329Z,16.23
2023-05-05T17:10:21.602Z,14.65
2023-05-05T17:12:48.615Z,24.50
2023-05-05T17:15:15.343Z,19.98
2023-05-05T17:17:43.104Z,28.45
2023-05-05T17:20:10.966Z,31.55
2023-05-05T17:22:38.097Z,56.08
2023-05-05T17:25:05.785Z,33.38
2023-05-05T17:27:32.525Z,29.77
2023-05-05T17:29:59.267Z,47.60
2023-05-05T17:32:26.566Z,61.10
2023-05-05T17:34:53.349Z,20.02
2023-05-05T17:37:20.094Z,44.50
2023-05-05T17:39:46.726Z,39.30
2023-05-05T17:42:13.799Z,46.45
2023-05-05T17:44:40.548Z,34.17
2023-05-05T17:47:10.605Z,52.95
2023-05-05T17:49:37.405Z,51.65
2023-05-05T17:52:04.279Z,51.78
2023-05-05T17:54:34.132Z,38.00
2023-05-05T17:57:00.842Z,14.90
2023-05-05T17:59:27.567Z,50.92
2023-05-05T18:01:54.218Z,53.70
2023-05-05T18:04:21.162Z,35.65
2023-05-05T18:06:50.030Z,55.38
2023-05-05T18:09:19.106Z,48.40
2023-05-05T18:11:45.868Z,39.53
2023-05-05T18:14:12.721Z,44.22
2023-05-05T18:16:47.678Z,38.05
2023-05-05T18:19:14.469Z,35.42
2023-05-05T18:21:41.520Z,32.60
2023-05-05T18:24:19.295Z,41.22
2023-05-05T18:26:51.427Z,29.02
2023-05-05T18:29:19.415Z,35.75
2023-05-05T18:31:49.602Z,64.88
2023-05-05T18:34:17.490Z,45.15
2023-05-05T18:36:46.371Z,27.52
2023-05-05T18:39:13.946Z,57.40
2023-05-05T18:41:41.050Z,40.85
2023-05-05T18:44:08.017Z,66.53
2023-05-05T18:46:34.888Z,28.50
2023-05-05T18:49:02.104Z,50.90
2023-05-05T18:51:28.806Z,54.30
2023-05-05T18:53:55.791Z,49.40
2023-05-05T18:56:22.460Z,46.95
2023-05-05T18:58:49.444Z,59.33
2023-05-05T19:01:16.495Z,45.47
2023-05-05T19:03:48.006Z,44.42
2023-05-05T19:06:15.510Z,30.23
2023-05-05T19:08:43.266Z,63.40
2023-05-05T19:11:10.128Z,58.10
2023-05-05T19:16:11.907Z,37.20
2023-05-05T19:18:39.692Z,45.40
2023-05-05T19:21:06.820Z,30.85
2023-05-05T19:23:34.647Z,49.85
2023-05-05T19:26:03.646Z,47.33
2023-05-05T19:28:30.399Z,56.55
2023-05-05T19:30:58.357Z,30.55
2023-05-05T19:33:26.023Z,36.42
2023-05-05T19:35:52.772Z,53.33
2023-05-05T19:38:19.504Z,42.42
2023-05-05T19:40:46.559Z,31.52
2023-05-05T19:43:13.268Z,47.13
2023-05-05T19:45:43.169Z,23.73
2023-05-05T19:48:11.237Z,28.48
2023-05-05T19:50:37.992Z,10.55
2023-05-05T19:53:07.296Z,22.52
2023-05-05T19:55:35.608Z,36.78
2023-05-05T19:58:02.348Z,22.70
2023-05-05T20:00:29.274Z,36.05
2023-05-05T20:02:55.969Z,25.75
2023-05-05T20:05:22.998Z,20.08
2023-05-05T20:07:50.230Z,19.67
2023-05-05T20:10:17.912Z,22.88
2023-05-05T20:12:48.909Z,27.45
2023-05-05T20:15:19.664Z,26.15
2023-05-05T20:17:47.530Z,11.30
2023-05-05T20:20:21.958Z,16.92
2023-05-05T20:22:49.713Z,12.23
2023-05-05T20:25:16.546Z,24.00
2023-05-05T20:27:43.404Z,25.02
2023-05-05T20:30:10.913Z,13.93
2023-05-05T20:32:38.110Z,16.27
2023-05-05T20:35:06.174Z,14.70
2023-05-05T20:37:32.954Z,15.05
2023-05-05T20:39:59.744Z,12.07
2023-05-05T20:42:27.785Z,13.57
2023-05-05T20:44:54.758Z,11.85
2023-05-05T20:47:21.442Z,12.43
2023-05-05T20:49:50.303Z,8.48
2023-05-05T20:52:17.016Z,9.38
2023-05-05T20:54:43.795Z,14.60
2023-05-05T20:57:10.997Z,10.48
2023-05-05T20:59:38.101Z,11.13
2023-05-05T21:02:04.856Z,11.45
2023-05-05T21:04:31.766Z,12.32
2023-05-05T21:06:58.480Z,7.70
2023-05-05T21:09:25.285Z,9.10
2023-05-05T21:11:51.973Z,10.43
2023-05-05T21:14:18.793Z,8.07
2023-05-05T21:16:45.637Z,10.18
2023-05-05T21:19:12.596Z,9.82
2023-05-05T21:21:40.024Z,8.70
2023-05-05T21:24:08.088Z,7.95
2023-05-05T21:26:35.108Z,10.35
2023-05-05T21:29:01.830Z,8.70
2023-05-05T21:31:29.045Z,8.05
2023-05-05T21:33:55.832Z,9.25
2023-05-05T21:36:26.296Z,9.40
2023-05-05T21:38:56.656Z,11.20
2023-05-05T21:41:24.804Z,8.00
2023-05-05T21:43:54.741Z,6.82
2023-05-05T21:46:22.184Z,7.35
2023-05-05T21:48:48.904Z,8.55
2023-05-05T21:51:15.905Z,8.30
2023-05-05T21:53:42.853Z,7.70
2023-05-05T21:56:09.746Z,6.88
2023-05-05T21:58:36.542Z,7.15
2023-05-05T22:01:03.349Z,8.63
2023-05-05T22:03:30.131Z,10.15
2023-05-05T22:05:58.170Z,7.97
2023-05-05T22:08:26.086Z,7.88
2023-05-05T22:10:52.768Z,8.00
2023-05-05T22:13:19.545Z,8.10
2023-05-05T22:15:47.400Z,9.05
2023-05-05T22:18:15.294Z,7.93
2023-05-05T22:20:45.257Z,7.72
2023-05-05T22:23:14.012Z,11.52
2023-05-05T22:25:40.897Z,8.40
2023-05-05T22:28:11.568Z,7.75
2023-05-05T22:30:38.275Z,9.25
2023-05-05T22:33:05.100Z,8.48
2023-05-05T22:35:33.939Z,7.63
2023-05-05T22:38:01.490Z,9.32
2023-05-05T22:40:28.382Z,10.48
2023-05-05T22:42:55.202Z,7.90
2023-05-05T22:45:23.183Z,9.80
2023-05-05T22:47:50.220Z,10.60
2023-05-05T22:50:20.071Z,8.75
2023-05-05T22:52:46.910Z,8.63
2023-05-05T22:55:15.029Z,8.85
2023-05-05T22:57:42.313Z,11.18
2023-05-05T23:00:10.681Z,10.38
2023-05-05T23:02:38.118Z,8.20
2023-05-05T23:05:05.289Z,9.32
2023-05-05T23:07:32.317Z,10.85
2023-05-05T23:09:59.045Z,12.52
2023-05-05T23:12:25.935Z,9.73
2023-05-05T23:14:52.774Z,10.15
2023-05-05T23:17:19.671Z,10.10
2023-05-05T23:19:47.887Z,12.30
2023-05-05T23:22:14.912Z,11.75
2023-05-05T23:24:41.711Z,11.05
2023-05-05T23:27:08.458Z,12.18
2023-05-05T23:29:35.464Z,11.77
2023-05-05T23:32:02.146Z,11.98
2023-05-05T23:34:28.815Z,9.73
2023-05-05T23:36:56.962Z,9.85
2023-05-05T23:39:23.688Z,12.50
2023-05-05T23:41:52.636Z,11.30
2023-05-05T23:44:20.725Z,10.93
2023-05-05T23:46:47.417Z,11.10
2023-05-05T23:49:14.154Z,12.63
2023-05-05T23:51:41.430Z,12.55
2023-05-05T23:54:08.480Z,11.38
2023-05-05T23:56:35.771Z,11.20
2023-05-05T23:59:02.416Z,11.77
